sensor_id;sensor_type;location;lat;lon;timestamp;P1;durP1;ratioP1;P2;durP2;ratioP2
39370;SDS011;25099;51.946;4.838;2023-09-18T00:00:13;32.47;;;25.70;;
39370;SDS011;25099;51.946;4.838;2023-09-18T00:02:58;34.80;;;26.02;;
39370;SDS011;25099;51.946;4.838;2023-09-18T00:05:23;32.53;;;27.52;;
39370;SDS011;25099;51.946;4.838;2023-09-18T00:08:01;31.02;;;27.00;;
39370;SDS011;25099;51.946;4.838;2023-09-18T00:10:39;33.58;;;28.15;;
39370;SDS011;25099;51.946;4.838;2023-09-18T00:13:23;35.28;;;27.33;;
39370;SDS011;25099;51.946;4.838;2023-09-18T00:15:49;36.72;;;27.63;;
39370;SDS011;25099;51.946;4.838;2023-09-18T00:18:16;33.50;;;27.85;;
39370;SDS011;25099;51.946;4.838;2023-09-18T00:20:52;32.75;;;27.17;;
39370;SDS011;25099;51.946;4.838;2023-09-18T00:23:26;31.27;;;27.45;;
39370;SDS011;25099;51.946;4.838;2023-09-18T00:26:07;33.35;;;26.65;;
39370;SDS011;25099;51.946;4.838;2023-09-18T00:28:48;32.42;;;27.67;;
39370;SDS011;25099;51.946;4.838;2023-09-18T00:31:26;31.42;;;27.38;;
39370;SDS011;25099;51.946;4.838;2023-09-18T00:34:03;35.45;;;26.63;;
39370;SDS011;25099;51.946;4.838;2023-09-18T00:36:44;35.63;;;26.40;;
39370;SDS011;25099;51.946;4.838;2023-09-18T00:39:15;35.90;;;28.25;;
39370;SDS011;25099;51.946;4.838;2023-09-18T00:54:13;32.28;;;26.95;;
39370;SDS011;25099;51.946;4.838;2023-09-18T00:59:28;33.58;;;27.38;;
39370;SDS011;25099;51.946;4.838;2023-09-18T01:02:06;34.22;;;27.23;;
39370;SDS011;25099;51.946;4.838;2023-09-18T01:04:45;35.13;;;27.70;;
39370;SDS011;25099;51.946;4.838;2023-09-18T01:10:47;33.63;;;25.95;;
39370;SDS011;25099;51.946;4.838;2023-09-18T01:13:42;31.70;;;27.45;;
39370;SDS011;25099;51.946;4.838;2023-09-18T01:20:08;35.33;;;27.02;;
39370;SDS011;25099;51.946;4.838;2023-09-18T01:23:13;30.33;;;25.75;;
39370;SDS011;25099;51.946;4.838;2023-09-18T01:29:08;33.70;;;25.83;;
39370;SDS011;25099;51.946;4.838;2023-09-18T01:31:47;33.58;;;25.40;;
39370;SDS011;25099;51.946;4.838;2023-09-18T01:34:31;28.30;;;25.30;;
39370;SDS011;25099;51.946;4.838;2023-09-18T01:39:54;32.60;;;25.10;;
39370;SDS011;25099;51.946;4.838;2023-09-18T01:52:17;29.83;;;24.63;;
39370;SDS011;25099;51.946;4.838;2023-09-18T01:55:07;28.67;;;24.83;;
39370;SDS011;25099;51.946;4.838;2023-09-18T01:57:53;33.40;;;27.63;;
39370;SDS011;25099;51.946;4.838;2023-09-18T02:06:51;31.77;;;24.67;;
39370;SDS011;25099;51.946;4.838;2023-09-18T02:09:20;30.17;;;24.77;;
39370;SDS011;25099;51.946;4.838;2023-09-18T02:14:54;37.33;;;26.10;;
39370;SDS011;25099;51.946;4.838;2023-09-18T02:17:38;28.85;;;25.15;;
39370;SDS011;25099;51.946;4.838;2023-09-18T02:20:19;27.45;;;24.55;;
39370;SDS011;25099;51.946;4.838;2023-09-18T02:28:37;28.50;;;25.40;;
39370;SDS011;25099;51.946;4.838;2023-09-18T02:31:06;28.27;;;25.30;;
39370;SDS011;25099;51.946;4.838;2023-09-18T02:33:40;35.30;;;25.45;;
39370;SDS011;25099;51.946;4.838;2023-09-18T02:36:17;26.85;;;23.17;;
39370;SDS011;25099;51.946;4.838;2023-09-18T03:00:00;27.10;;;22.55;;
39370;SDS011;25099;51.946;4.838;2023-09-18T03:02:51;30.35;;;23.05;;
39370;SDS011;25099;51.946;4.838;2023-09-18T03:08:59;24.13;;;21.55;;
39370;SDS011;25099;51.946;4.838;2023-09-18T03:18:16;23.92;;;21.42;;
39370;SDS011;25099;51.946;4.838;2023-09-18T03:20:49;25.48;;;22.23;;
39370;SDS011;25099;51.946;4.838;2023-09-18T03:23:15;31.58;;;23.20;;
39370;SDS011;25099;51.946;4.838;2023-09-18T03:25:41;30.20;;;22.45;;
39370;SDS011;25099;51.946;4.838;2023-09-18T03:28:06;24.80;;;22.23;;
39370;SDS011;25099;51.946;4.838;2023-09-18T03:30:49;23.88;;;20.67;;
39370;SDS011;25099;51.946;4.838;2023-09-18T03:36:36;25.35;;;18.23;;
39370;SDS011;25099;51.946;4.838;2023-09-18T03:39:19;21.42;;;19.02;;
39370;SDS011;25099;51.946;4.838;2023-09-18T03:42:13;23.38;;;19.35;;
39370;SDS011;25099;51.946;4.838;2023-09-18T03:44:54;23.30;;;19.15;;
39370;SDS011;25099;51.946;4.838;2023-09-18T03:47:31;21.95;;;18.98;;
39370;SDS011;25099;51.946;4.838;2023-09-18T03:49:58;20.30;;;17.73;;
39370;SDS011;25099;51.946;4.838;2023-09-18T03:52:37;22.17;;;19.00;;
39370;SDS011;25099;51.946;4.838;2023-09-18T03:58:09;18.25;;;16.33;;
39370;SDS011;25099;51.946;4.838;2023-09-18T04:00:35;25.08;;;19.10;;
39370;SDS011;25099;51.946;4.838;2023-09-18T04:03:16;20.75;;;17.48;;
39370;SDS011;25099;51.946;4.838;2023-09-18T04:05:57;22.20;;;18.45;;
39370;SDS011;25099;51.946;4.838;2023-09-18T04:08:23;20.58;;;17.40;;
39370;SDS011;25099;51.946;4.838;2023-09-18T04:11:00;18.80;;;16.30;;
39370;SDS011;25099;51.946;4.838;2023-09-18T04:13:37;17.65;;;15.77;;
39370;SDS011;25099;51.946;4.838;2023-09-18T04:16:06;21.98;;;15.57;;
39370;SDS011;25099;51.946;4.838;2023-09-18T04:18:44;17.20;;;15.50;;
39370;SDS011;25099;51.946;4.838;2023-09-18T04:24:10;20.02;;;14.77;;
39370;SDS011;25099;51.946;4.838;2023-09-18T04:26:55;22.95;;;17.17;;
39370;SDS011;25099;51.946;4.838;2023-09-18T04:29:33;20.10;;;15.93;;
39370;SDS011;25099;51.946;4.838;2023-09-18T04:32:14;21.15;;;15.65;;
39370;SDS011;25099;51.946;4.838;2023-09-18T04:34:55;17.63;;;15.57;;
39370;SDS011;25099;51.946;4.838;2023-09-18T04:37:32;25.00;;;17.10;;
39370;SDS011;25099;51.946;4.838;2023-09-18T04:40:14;25.80;;;17.67;;
39370;SDS011;25099;51.946;4.838;2023-09-18T04:42:58;17.73;;;15.60;;
39370;SDS011;25099;51.946;4.838;2023-09-18T04:48:26;19.02;;;15.43;;
39370;SDS011;25099;51.946;4.838;2023-09-18T04:50:58;21.63;;;16.88;;
39370;SDS011;25099;51.946;4.838;2023-09-18T04:53:35;20.98;;;18.45;;
39370;SDS011;25099;51.946;4.838;2023-09-18T04:56:07;22.08;;;17.15;;
39370;SDS011;25099;51.946;4.838;2023-09-18T04:58:53;19.75;;;16.92;;
39370;SDS011;25099;51.946;4.838;2023-09-18T05:01:27;16.88;;;15.38;;
39370;SDS011;25099;51.946;4.838;2023-09-18T05:04:03;16.80;;;14.98;;
39370;SDS011;25099;51.946;4.838;2023-09-18T05:06:44;20.98;;;15.43;;
39370;SDS011;25099;51.946;4.838;2023-09-18T05:09:25;21.23;;;16.02;;
39370;SDS011;25099;51.946;4.838;2023-09-18T05:28:56;14.23;;;12.75;;
39370;SDS011;25099;51.946;4.838;2023-09-18T06:20:25;8.55;;;7.72;;
39370;SDS011;25099;51.946;4.838;2023-09-18T06:45:38;9.05;;;8.10;;
39370;SDS011;25099;51.946;4.838;2023-09-18T07:06:56;9.68;;;8.80;;
39370;SDS011;25099;51.946;4.838;2023-09-18T07:09:27;8.32;;;7.05;;
39370;SDS011;25099;51.946;4.838;2023-09-18T07:12:08;7.97;;;7.20;;
39370;SDS011;25099;51.946;4.838;2023-09-18T07:14:36;17.40;;;7.25;;
39370;SDS011;25099;51.946;4.838;2023-09-18T07:17:12;11.10;;;7.35;;
39370;SDS011;25099;51.946;4.838;2023-09-18T07:19:43;7.72;;;7.03;;
39370;SDS011;25099;51.946;4.838;2023-09-18T07:22:24;9.93;;;6.60;;
39370;SDS011;25099;51.946;4.838;2023-09-18T07:24:53;8.32;;;6.68;;
39370;SDS011;25099;51.946;4.838;2023-09-18T07:27:19;7.57;;;6.50;;
39370;SDS011;25099;51.946;4.838;2023-09-18T07:43:13;12.15;;;7.45;;
39370;SDS011;25099;51.946;4.838;2023-09-18T07:46:20;9.55;;;6.72;;
39370;SDS011;25099;51.946;4.838;2023-09-18T07:48:55;11.50;;;8.00;;
39370;SDS011;25099;51.946;4.838;2023-09-18T07:51:33;14.15;;;9.05;;
39370;SDS011;25099;51.946;4.838;2023-09-18T07:54:19;10.25;;;8.40;;
39370;SDS011;25099;51.946;4.838;2023-09-18T10:24:49;9.07;;;6.65;;
39370;SDS011;25099;51.946;4.838;2023-09-18T10:27:19;6.97;;;6.35;;
39370;SDS011;25099;51.946;4.838;2023-09-18T10:29:48;8.77;;;6.63;;
39370;SDS011;25099;51.946;4.838;2023-09-18T10:32:16;9.38;;;7.05;;
39370;SDS011;25099;51.946;4.838;2023-09-18T10:34:47;8.15;;;6.65;;
39370;SDS011;25099;51.946;4.838;2023-09-18T10:37:34;10.20;;;8.30;;
39370;SDS011;25099;51.946;4.838;2023-09-18T10:40:02;8.25;;;7.03;;
39370;SDS011;25099;51.946;4.838;2023-09-18T10:42:51;7.75;;;6.95;;
39370;SDS011;25099;51.946;4.838;2023-09-18T10:45:52;8.32;;;6.60;;
39370;SDS011;25099;51.946;4.838;2023-09-18T10:48:47;8.95;;;7.35;;
39370;SDS011;25099;51.946;4.838;2023-09-18T10:51:14;6.53;;;5.93;;
39370;SDS011;25099;51.946;4.838;2023-09-18T10:53:44;9.07;;;7.15;;
39370;SDS011;25099;51.946;4.838;2023-09-18T10:56:12;7.00;;;6.35;;
39370;SDS011;25099;51.946;4.838;2023-09-18T10:58:41;7.35;;;6.65;;
39370;SDS011;25099;51.946;4.838;2023-09-18T11:01:10;7.18;;;6.38;;
39370;SDS011;25099;51.946;4.838;2023-09-18T11:03:50;9.30;;;6.10;;
39370;SDS011;25099;51.946;4.838;2023-09-18T11:06:17;8.68;;;6.65;;
39370;SDS011;25099;51.946;4.838;2023-09-18T11:21:06;10.25;;;6.03;;
39370;SDS011;25099;51.946;4.838;2023-09-18T11:27:04;6.13;;;5.47;;
39370;SDS011;25099;51.946;4.838;2023-09-18T11:35:11;9.63;;;5.05;;
39370;SDS011;25099;51.946;4.838;2023-09-18T11:37:38;6.60;;;4.72;;
39370;SDS011;25099;51.946;4.838;2023-09-18T11:43:41;4.75;;;4.25;;
39370;SDS011;25099;51.946;4.838;2023-09-18T11:46:24;6.60;;;5.05;;
39370;SDS011;25099;51.946;4.838;2023-09-18T11:54:22;8.40;;;5.00;;
39370;SDS011;25099;51.946;4.838;2023-09-18T11:57:03;7.22;;;4.90;;
39370;SDS011;25099;51.946;4.838;2023-09-18T12:05:14;6.10;;;5.50;;
39370;SDS011;25099;51.946;4.838;2023-09-18T12:10:24;5.05;;;4.50;;
39370;SDS011;25099;51.946;4.838;2023-09-18T12:12:51;5.75;;;4.82;;
39370;SDS011;25099;51.946;4.838;2023-09-18T12:15:36;7.78;;;4.78;;
39370;SDS011;25099;51.946;4.838;2023-09-18T12:18:20;6.97;;;4.60;;
39370;SDS011;25099;51.946;4.838;2023-09-18T12:23:26;16.20;;;4.97;;
39370;SDS011;25099;51.946;4.838;2023-09-18T12:26:11;9.93;;;4.70;;
39370;SDS011;25099;51.946;4.838;2023-09-18T12:28:39;5.95;;;4.28;;
39370;SDS011;25099;51.946;4.838;2023-09-18T12:33:50;6.72;;;4.45;;
39370;SDS011;25099;51.946;4.838;2023-09-18T12:39:21;7.47;;;3.88;;
39370;SDS011;25099;51.946;4.838;2023-09-18T12:41:47;6.13;;;4.22;;
39370;SDS011;25099;51.946;4.838;2023-09-18T12:47:01;5.35;;;4.22;;
39370;SDS011;25099;51.946;4.838;2023-09-18T12:49:51;7.07;;;4.30;;
39370;SDS011;25099;51.946;4.838;2023-09-18T12:52:37;7.18;;;4.72;;
39370;SDS011;25099;51.946;4.838;2023-09-18T12:55:05;9.88;;;4.45;;
39370;SDS011;25099;51.946;4.838;2023-09-18T13:00:22;7.25;;;3.90;;
39370;SDS011;25099;51.946;4.838;2023-09-18T13:12:17;6.50;;;3.25;;
39370;SDS011;25099;51.946;4.838;2023-09-18T13:21:25;6.97;;;4.35;;
39370;SDS011;25099;51.946;4.838;2023-09-18T13:27:17;4.40;;;3.80;;
39370;SDS011;25099;51.946;4.838;2023-09-18T13:29:42;5.68;;;3.70;;
39370;SDS011;25099;51.946;4.838;2023-09-18T13:32:17;4.53;;;4.07;;
39370;SDS011;25099;51.946;4.838;2023-09-18T13:34:43;5.22;;;4.35;;
39370;SDS011;25099;51.946;4.838;2023-09-18T13:37:25;7.25;;;4.10;;
39370;SDS011;25099;51.946;4.838;2023-09-18T13:39:52;8.13;;;4.30;;
39370;SDS011;25099;51.946;4.838;2023-09-18T13:42:28;8.40;;;4.00;;
39370;SDS011;25099;51.946;4.838;2023-09-18T13:44:59;11.60;;;3.55;;
39370;SDS011;25099;51.946;4.838;2023-09-18T13:47:28;5.30;;;3.27;;
39370;SDS011;25099;51.946;4.838;2023-09-18T13:49:54;3.60;;;2.92;;
39370;SDS011;25099;51.946;4.838;2023-09-18T13:52:39;5.72;;;2.80;;
39370;SDS011;25099;51.946;4.838;2023-09-18T13:55:05;4.07;;;2.83;;
39370;SDS011;25099;51.946;4.838;2023-09-18T13:57:31;4.15;;;2.45;;
39370;SDS011;25099;51.946;4.838;2023-09-18T14:00:14;3.92;;;2.80;;
39370;SDS011;25099;51.946;4.838;2023-09-18T14:02:41;4.78;;;2.63;;
39370;SDS011;25099;51.946;4.838;2023-09-18T14:05:07;5.22;;;2.42;;
39370;SDS011;25099;51.946;4.838;2023-09-18T14:07:52;3.83;;;2.20;;
39370;SDS011;25099;51.946;4.838;2023-09-18T14:10:24;8.05;;;2.92;;
39370;SDS011;25099;51.946;4.838;2023-09-18T14:13:08;6.30;;;2.78;;
39370;SDS011;25099;51.946;4.838;2023-09-18T14:15:34;4.20;;;2.40;;
39370;SDS011;25099;51.946;4.838;2023-09-18T14:17:59;5.05;;;2.33;;
39370;SDS011;25099;51.946;4.838;2023-09-18T14:20:43;7.72;;;2.72;;
39370;SDS011;25099;51.946;4.838;2023-09-18T14:23:08;9.60;;;2.92;;
39370;SDS011;25099;51.946;4.838;2023-09-18T14:25:34;3.90;;;2.08;;
39370;SDS011;25099;51.946;4.838;2023-09-18T14:28:16;4.10;;;2.53;;
39370;SDS011;25099;51.946;4.838;2023-09-18T14:30:41;7.53;;;2.00;;
39370;SDS011;25099;51.946;4.838;2023-09-18T14:33:07;3.25;;;2.95;;
39370;SDS011;25099;51.946;4.838;2023-09-18T14:35:33;2.67;;;2.10;;
39370;SDS011;25099;51.946;4.838;2023-09-18T14:38:13;5.03;;;2.00;;
39370;SDS011;25099;51.946;4.838;2023-09-18T14:43:28;0.95;;;0.50;;
39370;SDS011;25099;51.946;4.838;2023-09-18T14:46:03;0.52;;;0.30;;
39370;SDS011;25099;51.946;4.838;2023-09-18T14:48:29;1.70;;;0.60;;
39370;SDS011;25099;51.946;4.838;2023-09-18T14:51:11;0.63;;;0.50;;
39370;SDS011;25099;51.946;4.838;2023-09-18T14:53:37;3.13;;;0.80;;
39370;SDS011;25099;51.946;4.838;2023-09-18T14:56:18;1.58;;;0.70;;
39370;SDS011;25099;51.946;4.838;2023-09-18T14:58:43;1.48;;;0.80;;
39370;SDS011;25099;51.946;4.838;2023-09-18T15:01:09;2.03;;;1.10;;
39370;SDS011;25099;51.946;4.838;2023-09-18T15:03:47;3.45;;;1.00;;
39370;SDS011;25099;51.946;4.838;2023-09-18T15:06:14;6.63;;;1.10;;
39370;SDS011;25099;51.946;4.838;2023-09-18T15:08:51;5.15;;;1.40;;
39370;SDS011;25099;51.946;4.838;2023-09-18T15:11:17;2.33;;;1.08;;
39370;SDS011;25099;51.946;4.838;2023-09-18T15:13:44;2.63;;;1.00;;
39370;SDS011;25099;51.946;4.838;2023-09-18T15:16:09;3.47;;;1.35;;
39370;SDS011;25099;51.946;4.838;2023-09-18T15:18:54;2.75;;;1.00;;
39370;SDS011;25099;51.946;4.838;2023-09-18T15:21:20;2.58;;;1.42;;
39370;SDS011;25099;51.946;4.838;2023-09-18T15:24:06;2.75;;;1.55;;
39370;SDS011;25099;51.946;4.838;2023-09-18T15:29:23;2.60;;;1.45;;
39370;SDS011;25099;51.946;4.838;2023-09-18T15:31:54;1.90;;;1.20;;
39370;SDS011;25099;51.946;4.838;2023-09-18T15:34:37;4.70;;;1.55;;
39370;SDS011;25099;51.946;4.838;2023-09-18T15:37:21;6.53;;;2.10;;
39370;SDS011;25099;51.946;4.838;2023-09-18T15:45:31;4.65;;;1.83;;
39370;SDS011;25099;51.946;4.838;2023-09-18T15:48:14;2.28;;;1.73;;
39370;SDS011;25099;51.946;4.838;2023-09-18T15:50:47;2.05;;;1.70;;
39370;SDS011;25099;51.946;4.838;2023-09-18T15:56:40;4.45;;;1.90;;
39370;SDS011;25099;51.946;4.838;2023-09-18T17:42:32;13.50;;;1.75;;
39370;SDS011;25099;51.946;4.838;2023-09-18T17:44:58;7.63;;;1.75;;
39370;SDS011;25099;51.946;4.838;2023-09-18T17:47:35;3.17;;;1.75;;
39370;SDS011;25099;51.946;4.838;2023-09-18T17:50:01;4.43;;;1.33;;
39370;SDS011;25099;51.946;4.838;2023-09-18T17:52:36;4.50;;;1.50;;
39370;SDS011;25099;51.946;4.838;2023-09-18T17:55:02;8.82;;;1.90;;
39370;SDS011;25099;51.946;4.838;2023-09-18T18:13:52;5.25;;;1.33;;
39370;SDS011;25099;51.946;4.838;2023-09-18T18:18:50;14.45;;;2.65;;
39370;SDS011;25099;51.946;4.838;2023-09-18T18:21:21;14.15;;;2.80;;
39370;SDS011;25099;51.946;4.838;2023-09-18T18:23:53;6.20;;;1.60;;
39370;SDS011;25099;51.946;4.838;2023-09-18T18:26:28;10.20;;;2.05;;
39370;SDS011;25099;51.946;4.838;2023-09-18T18:29:05;3.67;;;1.58;;
39370;SDS011;25099;51.946;4.838;2023-09-18T18:45:36;12.05;;;2.42;;
39370;SDS011;25099;51.946;4.838;2023-09-18T18:48:25;4.35;;;2.00;;
39370;SDS011;25099;51.946;4.838;2023-09-18T18:51:08;9.05;;;2.28;;
39370;SDS011;25099;51.946;4.838;2023-09-18T18:53:38;8.30;;;2.70;;
39370;SDS011;25099;51.946;4.838;2023-09-18T18:56:11;8.23;;;2.65;;
39370;SDS011;25099;51.946;4.838;2023-09-18T18:58:39;8.35;;;1.88;;
39370;SDS011;25099;51.946;4.838;2023-09-18T19:01:12;6.45;;;2.38;;
39370;SDS011;25099;51.946;4.838;2023-09-18T19:03:39;11.30;;;2.58;;
39370;SDS011;25099;51.946;4.838;2023-09-18T19:06:07;16.88;;;3.08;;
39370;SDS011;25099;51.946;4.838;2023-09-18T19:08:38;8.73;;;2.60;;
39370;SDS011;25099;51.946;4.838;2023-09-18T19:11:04;11.77;;;2.88;;
39370;SDS011;25099;51.946;4.838;2023-09-18T19:13:50;11.45;;;3.67;;
39370;SDS011;25099;51.946;4.838;2023-09-18T19:16:24;11.10;;;3.50;;
39370;SDS011;25099;51.946;4.838;2023-09-18T19:24:11;13.50;;;3.45;;
39370;SDS011;25099;51.946;4.838;2023-09-18T19:26:37;16.02;;;3.47;;
39370;SDS011;25099;51.946;4.838;2023-09-18T19:29:15;13.38;;;3.65;;
39370;SDS011;25099;51.946;4.838;2023-09-18T19:31:41;16.40;;;4.38;;
39370;SDS011;25099;51.946;4.838;2023-09-18T19:34:13;14.57;;;3.53;;
39370;SDS011;25099;51.946;4.838;2023-09-18T19:36:55;10.50;;;2.97;;
39370;SDS011;25099;51.946;4.838;2023-09-18T19:39:20;12.10;;;3.50;;
39370;SDS011;25099;51.946;4.838;2023-09-18T19:42:05;15.90;;;4.57;;
39370;SDS011;25099;51.946;4.838;2023-09-18T19:44:47;18.17;;;3.60;;
39370;SDS011;25099;51.946;4.838;2023-09-18T19:47:32;14.05;;;3.50;;
39370;SDS011;25099;51.946;4.838;2023-09-18T19:49:58;15.20;;;3.13;;
39370;SDS011;25099;51.946;4.838;2023-09-18T19:52:26;16.58;;;3.97;;
39370;SDS011;25099;51.946;4.838;2023-09-18T19:55:04;15.57;;;3.55;;
39370;SDS011;25099;51.946;4.838;2023-09-18T19:57:51;9.65;;;3.20;;
39370;SDS011;25099;51.946;4.838;2023-09-18T20:00:20;18.67;;;3.85;;
39370;SDS011;25099;51.946;4.838;2023-09-18T20:02:58;16.00;;;4.43;;
39370;SDS011;25099;51.946;4.838;2023-09-18T20:05:30;16.95;;;4.03;;
39370;SDS011;25099;51.946;4.838;2023-09-18T20:07:57;17.17;;;3.20;;
39370;SDS011;25099;51.946;4.838;2023-09-18T20:10:39;13.93;;;3.25;;
39370;SDS011;25099;51.946;4.838;2023-09-18T20:13:11;15.93;;;3.60;;
39370;SDS011;25099;51.946;4.838;2023-09-18T20:15:37;15.25;;;3.55;;
39370;SDS011;25099;51.946;4.838;2023-09-18T20:18:03;16.48;;;4.13;;
39370;SDS011;25099;51.946;4.838;2023-09-18T20:20:35;10.15;;;3.22;;
39370;SDS011;25099;51.946;4.838;2023-09-18T20:23:01;17.88;;;4.30;;
39370;SDS011;25099;51.946;4.838;2023-09-18T20:25:42;18.55;;;4.03;;
39370;SDS011;25099;51.946;4.838;2023-09-18T20:28:08;11.77;;;3.28;;
39370;SDS011;25099;51.946;4.838;2023-09-18T20:30:52;17.42;;;3.38;;
39370;SDS011;25099;51.946;4.838;2023-09-18T20:33:18;19.40;;;4.38;;
39370;SDS011;25099;51.946;4.838;2023-09-18T20:35:57;16.05;;;3.97;;
39370;SDS011;25099;51.946;4.838;2023-09-18T20:38:30;9.07;;;2.67;;
39370;SDS011;25099;51.946;4.838;2023-09-18T20:53:06;11.38;;;3.70;;
39370;SDS011;25099;51.946;4.838;2023-09-18T20:55:41;15.65;;;3.42;;
39370;SDS011;25099;51.946;4.838;2023-09-18T20:58:08;11.20;;;3.03;;
39370;SDS011;25099;51.946;4.838;2023-09-18T21:00:52;14.90;;;3.83;;
39370;SDS011;25099;51.946;4.838;2023-09-18T21:06:05;21.75;;;4.50;;
39370;SDS011;25099;51.946;4.838;2023-09-18T21:08:32;16.92;;;3.35;;
39370;SDS011;25099;51.946;4.838;2023-09-18T21:11:13;13.45;;;3.40;;
39370;SDS011;25099;51.946;4.838;2023-09-18T21:13:54;13.23;;;4.25;;
39370;SDS011;25099;51.946;4.838;2023-09-18T21:16:20;23.90;;;5.15;;
39370;SDS011;25099;51.946;4.838;2023-09-18T21:19:04;26.70;;;4.97;;
39370;SDS011;25099;51.946;4.838;2023-09-18T21:21:30;18.02;;;3.88;;
39370;SDS011;25099;51.946;4.838;2023-09-18T21:24:10;12.85;;;3.75;;
39370;SDS011;25099;51.946;4.838;2023-09-18T21:26:54;32.55;;;6.00;;
39370;SDS011;25099;51.946;4.838;2023-09-18T21:29:31;11.45;;;3.60;;
39370;SDS011;25099;51.946;4.838;2023-09-18T21:31:57;14.07;;;4.03;;
39370;SDS011;25099;51.946;4.838;2023-09-18T21:34:41;12.75;;;3.35;;
39370;SDS011;25099;51.946;4.838;2023-09-18T21:37:07;15.45;;;3.35;;
39370;SDS011;25099;51.946;4.838;2023-09-18T21:39:45;9.98;;;3.13;;
39370;SDS011;25099;51.946;4.838;2023-09-18T21:42:13;12.77;;;2.92;;
39370;SDS011;25099;51.946;4.838;2023-09-18T21:44:48;11.52;;;2.83;;
39370;SDS011;25099;51.946;4.838;2023-09-18T21:47:34;12.05;;;3.85;;
39370;SDS011;25099;51.946;4.838;2023-09-18T21:50:00;7.75;;;2.35;;
39370;SDS011;25099;51.946;4.838;2023-09-18T21:52:26;10.52;;;2.33;;
39370;SDS011;25099;51.946;4.838;2023-09-18T21:54:51;8.40;;;2.47;;
39370;SDS011;25099;51.946;4.838;2023-09-18T21:57:30;9.70;;;2.00;;
39370;SDS011;25099;51.946;4.838;2023-09-18T21:59:56;6.47;;;1.98;;
39370;SDS011;25099;51.946;4.838;2023-09-18T22:02:21;6.95;;;1.98;;
39370;SDS011;25099;51.946;4.838;2023-09-18T22:04:47;10.95;;;2.35;;
39370;SDS011;25099;51.946;4.838;2023-09-18T22:07:12;8.52;;;2.03;;
39370;SDS011;25099;51.946;4.838;2023-09-18T22:09:38;6.53;;;2.00;;
39370;SDS011;25099;51.946;4.838;2023-09-18T22:12:07;9.05;;;2.03;;
39370;SDS011;25099;51.946;4.838;2023-09-18T22:14:48;6.10;;;1.98;;
39370;SDS011;25099;51.946;4.838;2023-09-18T22:17:15;8.52;;;2.00;;
39370;SDS011;25099;51.946;4.838;2023-09-18T22:19:41;10.73;;;2.38;;
39370;SDS011;25099;51.946;4.838;2023-09-18T22:24:54;5.18;;;1.70;;
39370;SDS011;25099;51.946;4.838;2023-09-18T22:27:36;7.53;;;1.65;;
39370;SDS011;25099;51.946;4.838;2023-09-18T22:32:40;4.43;;;1.85;;
39370;SDS011;25099;51.946;4.838;2023-09-18T22:35:05;5.45;;;1.90;;
39370;SDS011;25099;51.946;4.838;2023-09-18T22:37:36;4.35;;;1.30;;
39370;SDS011;25099;51.946;4.838;2023-09-18T22:55:20;8.65;;;2.35;;
39370;SDS011;25099;51.946;4.838;2023-09-18T22:58:07;6.05;;;1.88;;
39370;SDS011;25099;51.946;4.838;2023-09-18T23:00:35;8.15;;;1.92;;
39370;SDS011;25099;51.946;4.838;2023-09-18T23:03:07;5.78;;;1.35;;
39370;SDS011;25099;51.946;4.838;2023-09-18T23:05:34;7.38;;;1.83;;
39370;SDS011;25099;51.946;4.838;2023-09-18T23:08:13;10.95;;;1.98;;
39370;SDS011;25099;51.946;4.838;2023-09-18T23:10:41;7.57;;;2.13;;
39370;SDS011;25099;51.946;4.838;2023-09-18T23:13:07;9.05;;;2.35;;
39370;SDS011;25099;51.946;4.838;2023-09-18T23:15:55;6.20;;;1.88;;
39370;SDS011;25099;51.946;4.838;2023-09-18T23:18:23;8.80;;;2.25;;
39370;SDS011;25099;51.946;4.838;2023-09-18T23:21:02;6.15;;;2.22;;
39370;SDS011;25099;51.946;4.838;2023-09-18T23:23:30;5.75;;;1.92;;
39370;SDS011;25099;51.946;4.838;2023-09-18T23:26:02;7.63;;;2.60;;
39370;SDS011;25099;51.946;4.838;2023-09-18T23:28:28;5.63;;;2.28;;
39370;SDS011;25099;51.946;4.838;2023-09-18T23:30:55;8.55;;;2.03;;
39370;SDS011;25099;51.946;4.838;2023-09-18T23:33:22;4.28;;;1.90;;
39370;SDS011;25099;51.946;4.838;2023-09-18T23:35:52;8.65;;;2.30;;
39370;SDS011;25099;51.946;4.838;2023-09-18T23:38:36;8.48;;;2.55;;
39370;SDS011;25099;51.946;4.838;2023-09-18T23:41:05;12.27;;;2.25;;
39370;SDS011;25099;51.946;4.838;2023-09-18T23:43:31;5.90;;;2.25;;
39370;SDS011;25099;51.946;4.838;2023-09-18T23:46:13;14.67;;;2.37;;
39370;SDS011;25099;51.946;4.838;2023-09-18T23:48:40;10.82;;;2.15;;
39370;SDS011;25099;51.946;4.838;2023-09-18T23:51:07;14.05;;;2.65;;
39370;SDS011;25099;51.946;4.838;2023-09-18T23:53:48;10.93;;;2.03;;
39370;SDS011;25099;51.946;4.838;2023-09-18T23:56:14;4.20;;;1.58;;
39370;SDS011;25099;51.946;4.838;2023-09-18T23:58:41;8.68;;;2.10;;
